Time;durP1;ratioP1;P1;durP2;ratioP2;P2;SDS_P1;SDS_P2;PMS_P1;PMS_P2;Temp;Humidity;BMP_temperature;BMP_pressure;BME280_temperature;BME280_humidity;BME280_pressure;Samples;Min_cycle;Max_cycle;Signal;HPM_P1;HPM_P2
2021/06/08 00:01:21;;;;;;;4.20;2.95;;;;;;;;;;5031244;28;20037;-59
2021/06/08 00:03:49;;;;;;;7.18;2.75;;;;;;;;;;5013247;28;20137;-59
2021/06/08 00:06:17;;;;;;;8.27;2.60;;;;;;;;;;5011531;28;20096;-59
2021/06/08 00:08:45;;;;;;;4.20;2.67;;;;;;;;;;5029393;28;20053;-59
2021/06/08 00:11:16;;;;;;;6.18;2.50;;;;;;;;;;5012505;28;20088;-59
2021/06/08 00:13:44;;;;;;;5.35;2.65;;;;;;;;;;5019886;28;20477;-59
2021/06/08 00:16:11;;;;;;;4.97;2.60;;;;;;;;;;5017411;28;20046;-59
2021/06/08 00:18:39;;;;;;;4.53;3.33;;;;;;;;;;5030795;28;20493;-59
2021/06/08 00:21:07;;;;;;;4.68;3.05;;;;;;;;;;5012460;28;20502;-59
2021/06/08 00:23:35;;;;;;;4.90;3.10;;;;;;;;;;5015407;28;20075;-59
2021/06/08 00:26:03;;;;;;;5.70;3.10;;;;;;;;;;5016017;28;20399;-59
2021/06/08 00:28:33;;;;;;;3.17;2.88;;;;;;;;;;4995076;28;20073;-59
2021/06/08 00:31:00;;;;;;;3.40;3.10;;;;;;;;;;5007338;28;20050;-59
2021/06/08 00:33:28;;;;;;;3.63;3.00;;;;;;;;;;5003966;28;20089;-59
2021/06/08 00:35:56;;;;;;;3.63;2.75;;;;;;;;;;5011977;28;20081;-59
2021/06/08 00:38:24;;;;;;;5.32;3.00;;;;;;;;;;5005930;28;20055;-59
2021/06/08 00:40:52;;;;;;;5.60;3.45;;;;;;;;;;5010566;28;20046;-59
2021/06/08 00:43:24;;;;;;;6.20;2.88;;;;;;;;;;5007714;28;20042;-59
2021/06/08 00:45:53;;;;;;;6.45;3.35;;;;;;;;;;5011575;28;20129;-59
2021/06/08 00:48:22;;;;;;;4.88;3.30;;;;;;;;;;5008039;28;20049;-59
2021/06/08 00:50:50;;;;;;;11.75;4.03;;;;;;;;;;5010764;28;20573;-59
2021/06/08 00:53:18;;;;;;;5.25;3.53;;;;;;;;;;5009417;28;20137;-59
2021/06/08 00:55:45;;;;;;;10.15;3.58;;;;;;;;;;5011094;28;20136;-59
2021/06/08 00:58:13;;;;;;;5.35;3.45;;;;;;;;;;5009307;28;20057;-59
2021/06/08 01:00:41;;;;;;;5.35;3.80;;;;;;;;;;5009324;28;20046;-59
2021/06/08 01:03:10;;;;;;;4.68;3.80;;;;;;;;;;5000927;28;20652;-59
2021/06/08 01:05:38;;;;;;;5.07;3.22;;;;;;;;;;5004818;28;20140;-59
2021/06/08 01:08:06;;;;;;;7.13;3.38;;;;;;;;;;4994600;28;20056;-59
2021/06/08 01:10:34;;;;;;;5.13;3.60;;;;;;;;;;5005557;28;20058;-59
2021/06/08 01:13:02;;;;;;;7.60;3.78;;;;;;;;;;5008136;28;20041;-59
2021/06/08 01:15:30;;;;;;;5.38;3.85;;;;;;;;;;5007368;28;20122;-59
2021/06/08 01:17:58;;;;;;;4.38;3.83;;;;;;;;;;5007422;28;20061;-59
2021/06/08 01:20:27;;;;;;;5.45;3.60;;;;;;;;;;5007546;28;20124;-59
2021/06/08 01:22:56;;;;;;;7.03;4.03;;;;;;;;;;5005316;28;20053;-59
2021/06/08 01:25:24;;;;;;;4.97;3.85;;;;;;;;;;4996120;28;20092;-59
2021/06/08 01:27:53;;;;;;;5.55;3.88;;;;;;;;;;5006804;28;20144;-59
2021/06/08 01:30:22;;;;;;;5.10;3.90;;;;;;;;;;5005801;28;20069;-59
2021/06/08 01:32:50;;;;;;;4.97;4.10;;;;;;;;;;5007999;28;20144;-59
2021/06/08 01:35:19;;;;;;;6.05;4.00;;;;;;;;;;5008357;28;20124;-59
2021/06/08 01:37:47;;;;;;;9.18;4.10;;;;;;;;;;5009288;28;20156;-59
2021/06/08 01:40:18;;;;;;;8.70;3.78;;;;;;;;;;4999779;28;20108;-59
2021/06/08 01:42:48;;;;;;;5.80;3.95;;;;;;;;;;4999149;28;20054;-59
2021/06/08 01:45:15;;;;;;;4.43;4.03;;;;;;;;;;5008046;28;20156;-59
2021/06/08 01:47:43;;;;;;;6.00;4.10;;;;;;;;;;5000639;28;20101;-59
2021/06/08 01:50:11;;;;;;;7.57;3.95;;;;;;;;;;4991008;28;20042;-59
2021/06/08 01:52:42;;;;;;;6.13;4.00;;;;;;;;;;5001112;28;20058;-59
2021/06/08 01:55:13;;;;;;;5.35;4.32;;;;;;;;;;5010340;28;20077;-59
2021/06/08 01:57:44;;;;;;;6.53;4.75;;;;;;;;;;5001282;28;20052;-59
2021/06/08 02:00:15;;;;;;;15.25;4.57;;;;;;;;;;5010453;28;20076;-59
2021/06/08 02:02:48;;;;;;;5.65;4.25;;;;;;;;;;5001150;28;20056;-59
2021/06/08 02:05:19;;;;;;;8.00;4.50;;;;;;;;;;5010291;28;20140;-59
2021/06/08 02:07:51;;;;;;;6.10;4.68;;;;;;;;;;5021259;28;20141;-59
2021/06/08 02:10:39;;;;;;;6.35;4.40;;;;;;;;;;5029666;28;20046;-59
2021/06/08 02:13:17;;;;;;;7.18;4.85;;;;;;;;;;5023362;28;20155;-59
2021/06/08 02:15:50;;;;;;;7.35;4.57;;;;;;;;;;5029156;28;20124;-59
2021/06/08 02:18:18;;;;;;;7.57;4.68;;;;;;;;;;4993600;28;20134;-59
2021/06/08 02:20:48;;;;;;;6.78;4.63;;;;;;;;;;4998946;28;20060;-59
2021/06/08 02:23:16;;;;;;;7.35;4.90;;;;;;;;;;4994784;28;20054;-59
2021/06/08 02:25:45;;;;;;;8.93;4.50;;;;;;;;;;5001979;28;20077;-59
2021/06/08 02:28:15;;;;;;;6.47;4.90;;;;;;;;;;4995740;28;20410;-59
2021/06/08 02:30:47;;;;;;;5.25;4.18;;;;;;;;;;5010303;28;20548;-59
2021/06/08 02:33:16;;;;;;;8.27;4.85;;;;;;;;;;4996210;28;20462;-59
2021/06/08 02:35:44;;;;;;;13.70;5.38;;;;;;;;;;5000684;28;20160;-59
2021/06/08 02:38:12;;;;;;;6.00;4.50;;;;;;;;;;5012927;28;20140;-59
2021/06/08 02:40:40;;;;;;;6.13;4.13;;;;;;;;;;5010748;28;20465;-59
2021/06/08 02:43:08;;;;;;;6.55;4.50;;;;;;;;;;5012424;28;20058;-59
2021/06/08 02:45:36;;;;;;;9.15;4.55;;;;;;;;;;5012182;28;20132;-59
2021/06/08 02:48:06;;;;;;;5.50;3.47;;;;;;;;;;5011851;28;20149;-59
2021/06/08 02:50:34;;;;;;;5.18;3.75;;;;;;;;;;5012302;28;20104;-59
2021/06/08 02:53:03;;;;;;;13.38;4.60;;;;;;;;;;5012862;28;20081;-59
2021/06/08 02:55:31;;;;;;;16.60;5.55;;;;;;;;;;5010752;28;20129;-59
2021/06/08 02:58:01;;;;;;;6.78;5.43;;;;;;;;;;5013324;28;20454;-59
2021/06/08 03:00:29;;;;;;;19.70;5.93;;;;;;;;;;5032290;28;20433;-59
2021/06/08 03:02:58;;;;;;;5.55;4.65;;;;;;;;;;5020722;28;20054;-59
2021/06/08 03:05:28;;;;;;;6.00;4.88;;;;;;;;;;5032110;28;20077;-59
2021/06/08 03:07:58;;;;;;;7.50;5.65;;;;;;;;;;5013850;28;20057;-59
2021/06/08 03:10:28;;;;;;;7.55;4.95;;;;;;;;;;5025204;28;20056;-59
2021/06/08 03:12:57;;;;;;;10.00;5.70;;;;;;;;;;5030727;28;20050;-59
2021/06/08 03:15:27;;;;;;;10.77;6.05;;;;;;;;;;5032309;28;20057;-59
2021/06/08 03:17:54;;;;;;;7.60;5.47;;;;;;;;;;5028854;28;20121;-59
2021/06/08 03:20:25;;;;;;;7.70;5.80;;;;;;;;;;5025577;28;20064;-59
2021/06/08 03:22:57;;;;;;;8.05;5.65;;;;;;;;;;5016065;28;20565;-59
2021/06/08 03:25:25;;;;;;;9.30;5.50;;;;;;;;;;5027805;28;20050;-59
2021/06/08 03:27:54;;;;;;;8.98;5.50;;;;;;;;;;5025929;28;20132;-59
2021/06/08 03:30:23;;;;;;;8.70;5.18;;;;;;;;;;5026513;28;20045;-59
2021/06/08 03:32:51;;;;;;;6.88;5.22;;;;;;;;;;5031202;28;20516;-59
2021/06/08 03:35:20;;;;;;;7.93;5.70;;;;;;;;;;5031290;28;20434;-59
2021/06/08 03:37:48;;;;;;;8.48;5.53;;;;;;;;;;5029354;28;20141;-59
2021/06/08 03:40:18;;;;;;;8.20;5.13;;;;;;;;;;5029670;28;20075;-59
2021/06/08 03:42:46;;;;;;;7.40;4.85;;;;;;;;;;5015481;28;20061;-59
2021/06/08 03:45:15;;;;;;;8.48;5.70;;;;;;;;;;5029332;28;20489;-59
2021/06/08 03:47:44;;;;;;;8.20;5.28;;;;;;;;;;5031407;28;20144;-59
2021/06/08 03:50:14;;;;;;;7.75;4.85;;;;;;;;;;5030670;28;20128;-59
2021/06/08 03:52:43;;;;;;;12.48;5.90;;;;;;;;;;5018273;28;20054;-59
2021/06/08 03:55:11;;;;;;;7.30;5.32;;;;;;;;;;5030486;28;20132;-59
2021/06/08 03:57:45;;;;;;;10.20;5.32;;;;;;;;;;5030097;28;20045;-59
2021/06/08 04:00:15;;;;;;;10.30;6.65;;;;;;;;;;5031167;28;20048;-59
2021/06/08 04:02:43;;;;;;;7.88;5.43;;;;;;;;;;5023479;28;20140;-59
2021/06/08 04:05:12;;;;;;;9.07;5.68;;;;;;;;;;5027742;28;20576;-59
2021/06/08 04:07:40;;;;;;;12.35;5.22;;;;;;;;;;5023047;28;20153;-59
2021/06/08 04:10:09;;;;;;;12.13;5.35;;;;;;;;;;5018815;28;20080;-60
2021/06/08 04:12:37;;;;;;;8.65;5.72;;;;;;;;;;5026690;28;20581;-60
2021/06/08 04:15:07;;;;;;;9.10;5.30;;;;;;;;;;5031590;28;20119;-60
2021/06/08 04:17:35;;;;;;;8.18;5.40;;;;;;;;;;5015949;28;20050;-60
2021/06/08 04:20:04;;;;;;;8.07;4.60;;;;;;;;;;5001605;28;20137;-60
2021/06/08 04:22:33;;;;;;;8.70;4.78;;;;;;;;;;4995650;28;20309;-60
2021/06/08 04:25:01;;;;;;;10.52;5.28;;;;;;;;;;5006898;28;20398;-59
2021/06/08 04:27:30;;;;;;;13.57;5.18;;;;;;;;;;5006508;28;20129;-59
2021/06/08 04:29:58;;;;;;;9.23;6.85;;;;;;;;;;5007169;28;20058;-59
2021/06/08 04:32:27;;;;;;;10.30;5.35;;;;;;;;;;5010316;28;20132;-59
2021/06/08 04:34:57;;;;;;;7.38;5.63;;;;;;;;;;5008873;28;20050;-59
2021/06/08 04:37:26;;;;;;;7.00;5.40;;;;;;;;;;5004142;28;20065;-59
2021/06/08 04:39:54;;;;;;;13.02;6.18;;;;;;;;;;5004686;28;20050;-59
2021/06/08 04:42:22;;;;;;;9.23;6.70;;;;;;;;;;5000039;28;20038;-59
2021/06/08 04:44:51;;;;;;;11.60;7.00;;;;;;;;;;5010657;28;20046;-59
2021/06/08 04:47:20;;;;;;;9.02;5.80;;;;;;;;;;5005265;28;20091;-60
2021/06/08 04:49:50;;;;;;;12.02;6.72;;;;;;;;;;5008518;28;20042;-60
2021/06/08 04:52:18;;;;;;;9.05;6.35;;;;;;;;;;4998071;28;20123;-60
2021/06/08 04:54:47;;;;;;;6.15;5.40;;;;;;;;;;5005915;28;20140;-59
2021/06/08 04:57:17;;;;;;;9.93;5.68;;;;;;;;;;5001004;28;20076;-60
2021/06/08 04:59:49;;;;;;;7.22;5.65;;;;;;;;;;5010439;28;20461;-60
2021/06/08 05:02:20;;;;;;;10.35;7.60;;;;;;;;;;5008343;28;20537;-60
2021/06/08 05:04:50;;;;;;;8.38;7.05;;;;;;;;;;5007775;28;20485;-60
2021/06/08 05:07:19;;;;;;;9.27;6.57;;;;;;;;;;5006710;28;20037;-60
2021/06/08 05:09:49;;;;;;;11.35;7.10;;;;;;;;;;5008997;28;20121;-60
2021/06/08 05:12:19;;;;;;;11.32;6.93;;;;;;;;;;5001096;28;20513;-60
2021/06/08 05:14:48;;;;;;;10.95;7.25;;;;;;;;;;5003939;28;20100;-60
2021/06/08 05:17:17;;;;;;;10.73;7.00;;;;;;;;;;5005192;28;20145;-58
2021/06/08 05:19:46;;;;;;;11.82;7.75;;;;;;;;;;4997266;28;20149;-59
2021/06/08 05:22:18;;;;;;;12.07;8.55;;;;;;;;;;5002678;28;20046;-59
2021/06/08 05:24:48;;;;;;;15.90;8.88;;;;;;;;;;4992895;28;20057;-59
2021/06/08 05:27:16;;;;;;;10.68;8.32;;;;;;;;;;5000706;28;20132;-59
2021/06/08 05:29:44;;;;;;;13.30;8.05;;;;;;;;;;5000070;28;20110;-59
2021/06/08 05:32:12;;;;;;;13.75;8.80;;;;;;;;;;5001101;28;20128;-59
2021/06/08 05:34:42;;;;;;;12.43;8.60;;;;;;;;;;5007014;28;20057;-59
2021/06/08 05:37:11;;;;;;;12.88;7.95;;;;;;;;;;5012904;28;20099;-60
2021/06/08 05:39:42;;;;;;;13.57;8.50;;;;;;;;;;5021005;28;20136;-59
2021/06/08 05:42:12;;;;;;;16.10;10.70;;;;;;;;;;5025726;28;20046;-61
2021/06/08 05:44:40;;;;;;;15.27;9.40;;;;;;;;;;5020408;28;20042;-61
2021/06/08 05:47:09;;;;;;;19.75;11.52;;;;;;;;;;5013874;28;20382;-61
2021/06/08 05:49:38;;;;;;;15.63;9.80;;;;;;;;;;5006221;28;20532;-60
2021/06/08 05:52:07;;;;;;;17.10;11.52;;;;;;;;;;5004553;28;20509;-60
2021/06/08 05:54:36;;;;;;;13.60;10.07;;;;;;;;;;5005478;28;20635;-61
2021/06/08 05:57:08;;;;;;;12.68;8.52;;;;;;;;;;5007188;28;20621;-61
2021/06/08 05:59:38;;;;;;;16.13;10.23;;;;;;;;;;5006030;28;20064;-60
2021/06/08 06:02:06;;;;;;;13.60;10.27;;;;;;;;;;5006232;28;20053;-60
2021/06/08 06:04:36;;;;;;;15.35;9.57;;;;;;;;;;5007852;28;20054;-60
2021/06/08 06:07:04;;;;;;;13.82;9.27;;;;;;;;;;5011184;28;20099;-60
2021/06/08 06:09:32;;;;;;;13.07;8.65;;;;;;;;;;5028194;28;20322;-60
2021/06/08 06:12:00;;;;;;;14.75;9.77;;;;;;;;;;5028343;28;20041;-60
2021/06/08 06:14:31;;;;;;;12.05;9.05;;;;;;;;;;5025083;28;20050;-61
2021/06/08 06:16:59;;;;;;;16.15;9.20;;;;;;;;;;5004891;28;20062;-61
2021/06/08 06:19:28;;;;;;;11.80;8.95;;;;;;;;;;5001879;28;20419;-61
2021/06/08 06:21:57;;;;;;;15.40;9.20;;;;;;;;;;5006443;28;20557;-61
2021/06/08 06:24:26;;;;;;;13.32;9.35;;;;;;;;;;5006258;28;20405;-62
2021/06/08 06:26:55;;;;;;;12.80;8.75;;;;;;;;;;5008702;28;20050;-61
2021/06/08 06:29:24;;;;;;;12.50;8.45;;;;;;;;;;5010711;28;20553;-61
2021/06/08 06:31:56;;;;;;;12.25;8.48;;;;;;;;;;5010933;28;20058;-61
2021/06/08 06:34:25;;;;;;;15.23;9.05;;;;;;;;;;5009708;28;20042;-61
2021/06/08 06:36:56;;;;;;;14.48;9.05;;;;;;;;;;5010630;28;20076;-61
2021/06/08 06:39:25;;;;;;;14.30;8.55;;;;;;;;;;5025782;28;20053;-61
2021/06/08 06:41:54;;;;;;;14.50;9.35;;;;;;;;;;5028030;28;20050;-61
2021/06/08 06:44:23;;;;;;;15.05;10.38;;;;;;;;;;5024345;28;20045;-61
2021/06/08 06:46:53;;;;;;;15.75;10.40;;;;;;;;;;5020808;28;20494;-61
2021/06/08 06:49:23;;;;;;;12.90;9.38;;;;;;;;;;5002335;28;20140;-62
2021/06/08 06:51:53;;;;;;;18.40;11.35;;;;;;;;;;5005087;28;20057;-61
2021/06/08 06:54:21;;;;;;;15.82;11.65;;;;;;;;;;5008590;28;20058;-61
2021/06/08 06:56:50;;;;;;;13.63;10.10;;;;;;;;;;5006120;28;20556;-60
2021/06/08 06:59:19;;;;;;;14.93;9.73;;;;;;;;;;5000483;28;20112;-61
2021/06/08 07:01:48;;;;;;;15.52;11.73;;;;;;;;;;4994892;28;20048;-60
2021/06/08 07:04:18;;;;;;;20.55;14.00;;;;;;;;;;4998236;28;20399;-61
2021/06/08 07:06:46;;;;;;;17.60;10.32;;;;;;;;;;5000842;28;20098;-61
2021/06/08 07:09:15;;;;;;;16.15;11.70;;;;;;;;;;5005998;28;20054;-61
2021/06/08 07:11:44;;;;;;;16.20;11.93;;;;;;;;;;5003584;28;20057;-61
2021/06/08 07:14:13;;;;;;;16.63;12.63;;;;;;;;;;5004513;28;20409;-61
2021/06/08 07:16:42;;;;;;;15.98;11.50;;;;;;;;;;5009754;28;20050;-61
2021/06/08 07:19:12;;;;;;;17.88;11.82;;;;;;;;;;5001322;28;20452;-61
2021/06/08 07:21:42;;;;;;;17.33;10.45;;;;;;;;;;5002034;28;20423;-62
2021/06/08 07:24:11;;;;;;;15.90;11.55;;;;;;;;;;5002165;28;20484;-61
2021/06/08 07:26:39;;;;;;;15.93;10.25;;;;;;;;;;4998447;28;20109;-61
2021/06/08 07:29:08;;;;;;;19.77;13.10;;;;;;;;;;5004064;28;20046;-61
2021/06/08 07:31:40;;;;;;;16.27;10.73;;;;;;;;;;5007382;28;20077;-61
2021/06/08 07:34:12;;;;;;;14.55;11.18;;;;;;;;;;5009907;28;20108;-62
2021/06/08 07:36:44;;;;;;;14.95;10.77;;;;;;;;;;5001949;28;20177;-62
2021/06/08 07:39:20;;;;;;;14.77;10.23;;;;;;;;;;5003428;28;20186;-61
2021/06/08 07:41:51;;;;;;;22.75;13.88;;;;;;;;;;5006099;28;20076;-62
2021/06/08 07:44:24;;;;;;;18.52;12.95;;;;;;;;;;5008980;28;20141;-61
2021/06/08 07:46:53;;;;;;;23.27;13.93;;;;;;;;;;5016471;28;20116;-61
2021/06/08 07:49:23;;;;;;;14.73;10.85;;;;;;;;;;5008853;28;20038;-61
2021/06/08 07:51:53;;;;;;;21.17;13.68;;;;;;;;;;5004094;28;20064;-61
2021/06/08 07:54:22;;;;;;;19.48;12.32;;;;;;;;;;5005689;28;20049;-61
2021/06/08 07:56:50;;;;;;;19.67;15.63;;;;;;;;;;5006651;28;20053;-61
2021/06/08 07:59:19;;;;;;;17.65;13.75;;;;;;;;;;5008409;28;20493;-61
2021/06/08 08:01:48;;;;;;;16.38;12.23;;;;;;;;;;5005913;28;20401;-61
2021/06/08 08:04:19;;;;;;;15.20;11.98;;;;;;;;;;5009686;28;20108;-61
2021/06/08 08:06:50;;;;;;;22.20;14.50;;;;;;;;;;5006428;28;20054;-62
2021/06/08 08:09:20;;;;;;;21.67;16.67;;;;;;;;;;5008790;28;20163;-61
2021/06/08 08:11:52;;;;;;;16.00;12.00;;;;;;;;;;5006730;28;20227;-61
2021/06/08 08:14:23;;;;;;;23.23;14.82;;;;;;;;;;5003820;28;20054;-62
2021/06/08 08:16:52;;;;;;;19.80;13.10;;;;;;;;;;5013490;28;20559;-61
2021/06/08 08:19:20;;;;;;;21.65;15.95;;;;;;;;;;5022458;28;20042;-62
2021/06/08 08:21:49;;;;;;;15.20;11.40;;;;;;;;;;5011820;28;20053;-62
2021/06/08 08:24:19;;;;;;;19.92;16.20;;;;;;;;;;5025838;28;20057;-61
2021/06/08 08:26:48;;;;;;;22.52;14.63;;;;;;;;;;5029343;28;20529;-61
2021/06/08 08:29:17;;;;;;;17.55;14.25;;;;;;;;;;5027026;28;20049;-60
2021/06/08 08:31:46;;;;;;;18.30;14.25;;;;;;;;;;5030954;28;20494;-61
2021/06/08 08:34:14;;;;;;;18.00;12.48;;;;;;;;;;5023205;28;20079;-61
2021/06/08 08:36:42;;;;;;;17.05;13.20;;;;;;;;;;5022948;28;20489;-64
2021/06/08 08:39:12;;;;;;;18.38;13.20;;;;;;;;;;5026546;28;20047;-61
2021/06/08 08:41:42;;;;;;;25.00;17.30;;;;;;;;;;5020996;28;20050;-62
2021/06/08 08:44:10;;;;;;;18.85;14.15;;;;;;;;;;5026569;28;20362;-61
2021/06/08 08:46:39;;;;;;;18.65;14.15;;;;;;;;;;5024367;28;20046;-62
2021/06/08 08:49:07;;;;;;;19.13;12.68;;;;;;;;;;5019917;28;20053;-62
2021/06/08 08:51:38;;;;;;;15.52;11.98;;;;;;;;;;5021312;28;20050;-62
2021/06/08 08:54:06;;;;;;;23.23;14.30;;;;;;;;;;5019205;28;20050;-62
2021/06/08 08:56:36;;;;;;;19.83;12.77;;;;;;;;;;5024872;28;20121;-62
2021/06/08 08:59:06;;;;;;;20.52;14.38;;;;;;;;;;5026048;28;20486;-62
2021/06/08 09:01:36;;;;;;;19.38;12.85;;;;;;;;;;5025305;28;20050;-62
2021/06/08 09:04:05;;;;;;;18.48;13.60;;;;;;;;;;5024480;28;20047;-62
2021/06/08 09:06:34;;;;;;;18.20;12.70;;;;;;;;;;5026282;28;20056;-62
2021/06/08 09:09:02;;;;;;;19.30;14.13;;;;;;;;;;5030724;28;20045;-61
2021/06/08 09:11:36;;;;;;;15.05;11.52;;;;;;;;;;5026407;28;20042;-61
2021/06/08 09:14:06;;;;;;;20.88;13.40;;;;;;;;;;5022068;28;20037;-61
2021/06/08 09:16:34;;;;;;;20.50;15.90;;;;;;;;;;5015322;28;20056;-62
2021/06/08 09:19:04;;;;;;;19.13;13.93;;;;;;;;;;5026457;28;20702;-62
2021/06/08 09:21:33;;;;;;;17.45;12.95;;;;;;;;;;5027174;28;20135;-62
2021/06/08 09:24:17;;;;;;;20.35;14.43;;;;;;;;;;5025924;28;20061;-62
2021/06/08 09:26:53;;;;;;;20.60;13.48;;;;;;;;;;5018423;28;20060;-62
2021/06/08 09:29:30;;;;;;;19.75;12.75;;;;;;;;;;5022338;28;20045;-62
2021/06/08 09:32:18;;;;;;;21.70;13.75;;;;;;;;;;5021399;28;20051;-62
2021/06/08 09:34:48;;;;;;;18.90;15.52;;;;;;;;;;5022065;28;20057;-62
2021/06/08 09:37:17;;;;;;;18.02;13.32;;;;;;;;;;5022245;28;20054;-62
2021/06/08 09:39:47;;;;;;;12.63;11.20;;;;;;;;;;5028199;28;20053;-62
2021/06/08 09:42:20;;;;;;;17.33;12.57;;;;;;;;;;5027380;28;20131;-62
2021/06/08 09:45:15;;;;;;;15.30;11.50;;;;;;;;;;5030031;28;20132;-61
2021/06/08 09:47:44;;;;;;;18.10;13.73;;;;;;;;;;5030007;28;20042;-62
2021/06/08 09:50:29;;;;;;;19.45;13.77;;;;;;;;;;5026806;28;20128;-61
2021/06/08 09:53:17;;;;;;;16.40;11.02;;;;;;;;;;5022038;28;20045;-61
2021/06/08 09:55:49;;;;;;;17.38;13.52;;;;;;;;;;5024141;28;20046;-62
2021/06/08 09:58:17;;;;;;;20.33;13.15;;;;;;;;;;5022160;28;20149;-62
2021/06/08 10:01:05;;;;;;;13.20;10.27;;;;;;;;;;5022565;28;20235;-61
2021/06/08 10:03:37;;;;;;;14.82;11.75;;;;;;;;;;5021554;28;20049;-62
2021/06/08 10:06:07;;;;;;;15.57;10.32;;;;;;;;;;5023923;28;20041;-62
2021/06/08 10:08:36;;;;;;;18.88;11.13;;;;;;;;;;5024074;28;20100;-62
2021/06/08 10:11:17;;;;;;;17.42;11.75;;;;;;;;;;5027273;28;20122;-62
2021/06/08 10:13:46;;;;;;;20.05;13.40;;;;;;;;;;5026028;28;20050;-62
2021/06/08 10:16:23;;;;;;;12.88;9.75;;;;;;;;;;5027112;28;20137;-62
2021/06/08 10:18:51;;;;;;;11.77;10.50;;;;;;;;;;5017024;28;20045;-62
2021/06/08 10:21:35;;;;;;;11.38;9.60;;;;;;;;;;5022667;28;20481;-62
2021/06/08 10:24:08;;;;;;;17.88;11.95;;;;;;;;;;5027670;28;20053;-62
2021/06/08 10:26:36;;;;;;;16.15;11.55;;;;;;;;;;5019143;28;20054;-62
2021/06/08 10:29:05;;;;;;;13.65;10.32;;;;;;;;;;5022526;28;20053;-61
2021/06/08 10:31:36;;;;;;;16.40;12.32;;;;;;;;;;5023892;28;20521;-62
2021/06/08 10:34:06;;;;;;;13.15;11.68;;;;;;;;;;5016671;28;20437;-62
2021/06/08 10:36:36;;;;;;;12.43;9.45;;;;;;;;;;5022177;28;20053;-62
2021/06/08 10:39:04;;;;;;;15.07;12.27;;;;;;;;;;5022539;28;20385;-62
2021/06/08 10:41:33;;;;;;;16.05;12.43;;;;;;;;;;5026670;28;20046;-62
2021/06/08 10:44:03;;;;;;;14.65;9.70;;;;;;;;;;5028456;28;20488;-62
2021/06/08 10:46:34;;;;;;;10.05;8.98;;;;;;;;;;5014515;28;20180;-62
2021/06/08 10:49:06;;;;;;;21.35;13.23;;;;;;;;;;5016350;28;20052;-62
2021/06/08 10:51:36;;;;;;;14.27;11.40;;;;;;;;;;5031661;28;20064;-62
2021/06/08 10:54:07;;;;;;;13.85;10.77;;;;;;;;;;5027552;28;20183;-62
2021/06/08 10:56:36;;;;;;;15.60;11.23;;;;;;;;;;5023465;28;20422;-62
2021/06/08 10:59:05;;;;;;;12.80;11.40;;;;;;;;;;5020975;28;20041;-62
2021/06/08 11:01:46;;;;;;;12.60;10.80;;;;;;;;;;5025311;28;20527;-62
2021/06/08 11:04:20;;;;;;;13.57;8.85;;;;;;;;;;5029436;28;20515;-62
2021/06/08 11:06:50;;;;;;;12.85;9.00;;;;;;;;;;5029817;28;20116;-62
2021/06/08 11:09:31;;;;;;;11.38;7.88;;;;;;;;;;5030600;28;20045;-61
2021/06/08 11:11:59;;;;;;;9.15;7.38;;;;;;;;;;5024674;28;20049;-62
2021/06/08 11:15:00;;;;;;;8.95;8.05;;;;;;;;;;5029513;28;20057;-62
2021/06/08 11:17:39;;;;;;;12.90;8.82;;;;;;;;;;5024750;28;20136;-62
2021/06/08 11:20:29;;;;;;;14.65;10.50;;;;;;;;;;5026508;28;20049;-62
2021/06/08 11:23:01;;;;;;;11.65;10.45;;;;;;;;;;5011869;28;20054;-62
2021/06/08 11:25:53;;;;;;;14.10;9.00;;;;;;;;;;5020647;28;20532;-62
2021/06/08 11:28:22;;;;;;;14.68;10.02;;;;;;;;;;5022254;28;20069;-62
2021/06/08 11:30:57;;;;;;;10.68;8.23;;;;;;;;;;5019419;28;20485;-62
2021/06/08 11:33:31;;;;;;;13.25;8.57;;;;;;;;;;5027667;28;20057;-62
2021/06/08 11:36:01;;;;;;;9.15;8.25;;;;;;;;;;5022509;28;20085;-62
2021/06/08 11:38:33;;;;;;;9.13;7.82;;;;;;;;;;5019662;28;20077;-62
2021/06/08 11:41:07;;;;;;;12.07;9.25;;;;;;;;;;5017153;28;20041;-62
2021/06/08 11:43:49;;;;;;;14.18;10.52;;;;;;;;;;5016886;28;20568;-62
2021/06/08 11:46:18;;;;;;;11.52;9.18;;;;;;;;;;5020995;28;20120;-62
2021/06/08 11:48:47;;;;;;;9.07;7.25;;;;;;;;;;5022062;28;20045;-62
2021/06/08 11:51:34;;;;;;;13.55;10.88;;;;;;;;;;5030716;28;20053;-62
2021/06/08 11:54:04;;;;;;;15.23;11.48;;;;;;;;;;5028112;28;20076;-62
2021/06/08 11:56:53;;;;;;;10.52;7.85;;;;;;;;;;5023673;28;20727;-61
2021/06/08 11:59:23;;;;;;;12.43;9.43;;;;;;;;;;5014877;28;20041;-62
2021/06/08 12:01:53;;;;;;;11.25;8.60;;;;;;;;;;5027476;28;20099;-62
2021/06/08 12:04:22;;;;;;;10.38;9.13;;;;;;;;;;5030747;28;20407;-62
2021/06/08 12:07:03;;;;;;;8.55;7.22;;;;;;;;;;5027249;28;20049;-62
2021/06/08 12:09:32;;;;;;;13.65;8.63;;;;;;;;;;5027931;28;20053;-62
2021/06/08 12:12:04;;;;;;;11.55;8.18;;;;;;;;;;5029805;28;20103;-62
2021/06/08 12:14:32;;;;;;;9.35;7.53;;;;;;;;;;5019646;28;20037;-62
2021/06/08 12:17:02;;;;;;;9.30;8.38;;;;;;;;;;5015322;28;20145;-62
2021/06/08 12:19:32;;;;;;;11.93;8.30;;;;;;;;;;5023816;28;20136;-62
2021/06/08 12:22:00;;;;;;;9.35;7.22;;;;;;;;;;5014344;28;20137;-62
2021/06/08 12:24:30;;;;;;;9.85;7.07;;;;;;;;;;5028607;28;20408;-62
2021/06/08 12:27:00;;;;;;;9.52;6.93;;;;;;;;;;5019472;28;20148;-62
2021/06/08 12:29:29;;;;;;;7.40;6.28;;;;;;;;;;5021005;28;20079;-61
2021/06/08 12:32:02;;;;;;;7.95;6.10;;;;;;;;;;5028417;28;20045;-62
2021/06/08 12:34:35;;;;;;;6.53;5.85;;;;;;;;;;5021483;28;20050;-62
2021/06/08 12:37:04;;;;;;;7.28;6.40;;;;;;;;;;5025228;28;20587;-62
2021/06/08 12:39:51;;;;;;;6.08;5.43;;;;;;;;;;2188330;28;10023527;-62
2021/06/08 12:42:19;;;;;;;9.27;6.38;;;;;;;;;;3639887;28;10001318;-62
2021/06/08 12:44:49;;;;;;;8.20;7.15;;;;;;;;;;5011534;28;20092;-62
2021/06/08 12:47:18;;;;;;;6.53;5.93;;;;;;;;;;5021458;28;20045;-63
2021/06/08 12:49:48;;;;;;;8.60;5.72;;;;;;;;;;5024205;28;20530;-63
2021/06/08 12:52:19;;;;;;;8.65;5.78;;;;;;;;;;5023694;28;20421;-62
2021/06/08 12:54:48;;;;;;;8.77;5.88;;;;;;;;;;5029193;28;20046;-63
2021/06/08 12:57:25;;;;;;;7.10;6.07;;;;;;;;;;5024275;28;20137;-63
2021/06/08 12:59:55;;;;;;;7.60;5.85;;;;;;;;;;5027255;28;20061;-62
2021/06/08 13:02:25;;;;;;;7.82;5.35;;;;;;;;;;5027837;28;20558;-63
2021/06/08 13:04:53;;;;;;;7.63;5.75;;;;;;;;;;5025756;28;20156;-62
2021/06/08 13:07:23;;;;;;;7.55;6.70;;;;;;;;;;5021752;28;20108;-63
2021/06/08 13:09:58;;;;;;;9.57;6.10;;;;;;;;;;5020182;28;20041;-63
2021/06/08 13:12:39;;;;;;;9.43;6.55;;;;;;;;;;5024509;28;20046;-63
2021/06/08 13:15:09;;;;;;;9.82;7.35;;;;;;;;;;5023549;28;20052;-63
2021/06/08 13:17:38;;;;;;;8.95;7.43;;;;;;;;;;5019733;28;20516;-61
2021/06/08 13:20:20;;;;;;;7.65;6.38;;;;;;;;;;5024243;28;20512;-61
2021/06/08 13:22:49;;;;;;;8.00;5.35;;;;;;;;;;5029064;28;20107;-61
2021/06/08 13:25:19;;;;;;;6.40;5.85;;;;;;;;;;5029674;28;20390;-61
2021/06/08 13:27:49;;;;;;;7.82;5.50;;;;;;;;;;5027145;28;20057;-61
2021/06/08 13:30:19;;;;;;;6.80;5.70;;;;;;;;;;5029706;28;20082;-61
2021/06/08 13:32:59;;;;;;;6.13;5.53;;;;;;;;;;5021761;28;20049;-61
2021/06/08 13:35:33;;;;;;;8.23;6.00;;;;;;;;;;5025362;28;20493;-61
2021/06/08 13:38:03;;;;;;;6.43;5.50;;;;;;;;;;5026724;28;20064;-61
2021/06/08 13:40:32;;;;;;;9.32;5.78;;;;;;;;;;5032077;28;20044;-61
2021/06/08 13:43:06;;;;;;;7.38;5.53;;;;;;;;;;5029120;28;20104;-61
2021/06/08 13:45:36;;;;;;;7.07;4.90;;;;;;;;;;5027433;28;20064;-61
2021/06/08 13:48:33;;;;;;;7.85;4.97;;;;;;;;;;5024227;28;20131;-61
2021/06/08 13:51:12;;;;;;;6.32;4.57;;;;;;;;;;4975624;28;20046;-61
2021/06/08 13:53:41;;;;;;;6.80;4.88;;;;;;;;;;5025355;28;20076;-61
2021/06/08 13:56:14;;;;;;;6.82;4.35;;;;;;;;;;5028041;28;20049;-62
2021/06/08 14:01:33;;;;;;;7.28;4.57;;;;;;;;;;5018278;28;20058;-61
2021/06/08 14:04:05;;;;;;;5.28;4.55;;;;;;;;;;5023681;28;20495;-62
2021/06/08 14:06:35;;;;;;;5.15;4.28;;;;;;;;;;5024895;28;20083;-62
2021/06/08 14:09:07;;;;;;;5.03;4.00;;;;;;;;;;5025222;28;20532;-61
2021/06/08 14:11:36;;;;;;;4.95;3.80;;;;;;;;;;5026520;28;20100;-62
2021/06/08 14:14:08;;;;;;;4.38;3.97;;;;;;;;;;5023307;28;20568;-62
2021/06/08 14:16:36;;;;;;;9.02;4.30;;;;;;;;;;5030313;28;20489;-61
2021/06/08 14:19:05;;;;;;;5.53;3.97;;;;;;;;;;5030524;28;20037;-61
2021/06/08 14:21:34;;;;;;;5.22;3.63;;;;;;;;;;5030381;28;20053;-61
2021/06/08 14:24:02;;;;;;;5.65;4.03;;;;;;;;;;5031402;28;20045;-61
2021/06/08 14:26:32;;;;;;;6.20;3.70;;;;;;;;;;5031827;28;20291;-61
2021/06/08 14:29:01;;;;;;;3.95;3.50;;;;;;;;;;5031714;28;20057;-61
2021/06/08 14:31:31;;;;;;;4.18;3.58;;;;;;;;;;5028031;28;20116;-61
2021/06/08 14:34:00;;;;;;;4.13;3.63;;;;;;;;;;5025507;28;20132;-61
2021/06/08 14:36:29;;;;;;;6.43;4.63;;;;;;;;;;5030858;28;20047;-62
2021/06/08 14:38:58;;;;;;;5.93;3.97;;;;;;;;;;5031592;28;20550;-61
2021/06/08 14:41:26;;;;;;;5.50;4.03;;;;;;;;;;5025751;28;20127;-60
2021/06/08 14:43:55;;;;;;;5.22;4.15;;;;;;;;;;5026115;28;20666;-60
2021/06/08 14:46:26;;;;;;;6.85;4.18;;;;;;;;;;5024830;28;20058;-61
2021/06/08 14:48:56;;;;;;;6.97;4.28;;;;;;;;;;5032158;28;20400;-61
2021/06/08 14:51:24;;;;;;;6.03;4.10;;;;;;;;;;5028130;28;20042;-61
2021/06/08 14:53:52;;;;;;;6.60;4.40;;;;;;;;;;5026172;28;20046;-61